sensor_id;sensor_type;location;lat;lon;timestamp;pressure;altitude;pressure_sealevel;temperature
67599;BMP280;62026;39.230;9.122;2023-10-13T00:01:59;101618.75;;;23.34
67599;BMP280;62026;39.230;9.122;2023-10-13T00:04:28;101619.28;;;23.31
67599;BMP280;62026;39.230;9.122;2023-10-13T00:06:55;101613.38;;;23.29
67599;BMP280;62026;39.230;9.122;2023-10-13T00:09:31;101613.94;;;23.26
67599;BMP280;62026;39.230;9.122;2023-10-13T00:12:08;101619.56;;;23.24
67599;BMP280;62026;39.230;9.122;2023-10-13T00:14:40;101622.56;;;23.23
67599;BMP280;62026;39.230;9.122;2023-10-13T00:17:09;101605.28;;;23.24
67599;BMP280;62026;39.230;9.122;2023-10-13T00:19:41;101606.44;;;23.17
67599;BMP280;62026;39.230;9.122;2023-10-13T00:22:15;101611.53;;;23.19
67599;BMP280;62026;39.230;9.122;2023-10-13T00:24:44;101612.63;;;23.18
67599;BMP280;62026;39.230;9.122;2023-10-13T00:27:15;101613.72;;;23.12
67599;BMP280;62026;39.230;9.122;2023-10-13T00:30:07;101612.91;;;23.11
67599;BMP280;62026;39.230;9.122;2023-10-13T00:32:51;101608.59;;;23.10
67599;BMP280;62026;39.230;9.122;2023-10-13T00:35:25;101608.06;;;23.08
67599;BMP280;62026;39.230;9.122;2023-10-13T00:37:55;101607.53;;;23.06
67599;BMP280;62026;39.230;9.122;2023-10-13T00:40:22;101608.06;;;23.08
67599;BMP280;62026;39.230;9.122;2023-10-13T00:42:58;101605.38;;;23.08
67599;BMP280;62026;39.230;9.122;2023-10-13T00:45:47;101602.13;;;23.01
67599;BMP280;62026;39.230;9.122;2023-10-13T00:48:32;101608.59;;;23.05
67599;BMP280;62026;39.230;9.122;2023-10-13T00:51:03;101598.94;;;23.04
67599;BMP280;62026;39.230;9.122;2023-10-13T00:53:31;101598.94;;;22.99
67599;BMP280;62026;39.230;9.122;2023-10-13T00:56:02;101600.03;;;22.93
67599;BMP280;62026;39.230;9.122;2023-10-13T00:58:37;101597.34;;;22.93
67599;BMP280;62026;39.230;9.122;2023-10-13T01:01:06;101589.53;;;22.92
67599;BMP280;62026;39.230;9.122;2023-10-13T01:03:55;101591.16;;;22.93
67599;BMP280;62026;39.230;9.122;2023-10-13T01:06:28;101584.16;;;22.92
67599;BMP280;62026;39.230;9.122;2023-10-13T01:09:06;101588.47;;;22.88
67599;BMP280;62026;39.230;9.122;2023-10-13T01:11:41;101583.91;;;22.88
67599;BMP280;62026;39.230;9.122;2023-10-13T01:14:14;101586.03;;;22.86
67599;BMP280;62026;39.230;9.122;2023-10-13T01:16:45;101586.59;;;22.83
67599;BMP280;62026;39.230;9.122;2023-10-13T01:19:16;101589.00;;;22.85
67599;BMP280;62026;39.230;9.122;2023-10-13T01:21:51;101587.97;;;22.81
67599;BMP280;62026;39.230;9.122;2023-10-13T01:24:29;101596.34;;;22.74
67599;BMP280;62026;39.230;9.122;2023-10-13T01:27:05;101590.94;;;22.69
67599;BMP280;62026;39.230;9.122;2023-10-13T01:29:47;101592.31;;;22.66
67599;BMP280;62026;39.230;9.122;2023-10-13T01:32:29;101592.56;;;22.70
67599;BMP280;62026;39.230;9.122;2023-10-13T01:34:55;101586.38;;;22.69
67599;BMP280;62026;39.230;9.122;2023-10-13T01:37:23;101588.25;;;22.69
67599;BMP280;62026;39.230;9.122;2023-10-13T01:39:49;101583.41;;;22.66
67599;BMP280;62026;39.230;9.122;2023-10-13T01:42:16;101586.13;;;22.66
67599;BMP280;62026;39.230;9.122;2023-10-13T01:44:48;101586.66;;;22.63
67599;BMP280;62026;39.230;9.122;2023-10-13T01:47:14;101582.34;;;22.62
67599;BMP280;62026;39.230;9.122;2023-10-13T01:49:42;101583.97;;;22.58
67599;BMP280;62026;39.230;9.122;2023-10-13T01:52:14;101576.41;;;22.60
67599;BMP280;62026;39.230;9.122;2023-10-13T01:54:47;101574.00;;;22.58
67599;BMP280;62026;39.230;9.122;2023-10-13T01:57:14;101572.94;;;22.54
67599;BMP280;62026;39.230;9.122;2023-10-13T01:59:44;101568.34;;;22.55
67599;BMP280;62026;39.230;9.122;2023-10-13T02:02:11;101575.31;;;22.56
67599;BMP280;62026;39.230;9.122;2023-10-13T02:04:41;101559.75;;;22.58
67599;BMP280;62026;39.230;9.122;2023-10-13T02:07:23;101568.09;;;22.51
67599;BMP280;62026;39.230;9.122;2023-10-13T02:10:00;101554.38;;;22.58
67599;BMP280;62026;39.230;9.122;2023-10-13T02:12:31;101561.34;;;22.54
67599;BMP280;62026;39.230;9.122;2023-10-13T02:15:13;101561.34;;;22.54
67599;BMP280;62026;39.230;9.122;2023-10-13T02:17:53;101569.97;;;22.46
67599;BMP280;62026;39.230;9.122;2023-10-13T02:20:20;101560.84;;;22.42
67599;BMP280;62026;39.230;9.122;2023-10-13T02:22:49;101555.47;;;22.42
67599;BMP280;62026;39.230;9.122;2023-10-13T02:25:17;101563.00;;;22.34
67599;BMP280;62026;39.230;9.122;2023-10-13T02:28:01;101559.78;;;22.32
67599;BMP280;62026;39.230;9.122;2023-10-13T02:30:27;101558.16;;;22.31
67599;BMP280;62026;39.230;9.122;2023-10-13T02:32:53;101560.31;;;22.29
67599;BMP280;62026;39.230;9.122;2023-10-13T02:35:21;101555.50;;;22.26
67599;BMP280;62026;39.230;9.122;2023-10-13T02:38:09;101557.09;;;22.22
67599;BMP280;62026;39.230;9.122;2023-10-13T02:40:39;101553.06;;;22.25
67599;BMP280;62026;39.230;9.122;2023-10-13T02:43:06;101550.38;;;22.20
67599;BMP280;62026;39.230;9.122;2023-10-13T02:45:33;101553.59;;;22.17
67599;BMP280;62026;39.230;9.122;2023-10-13T02:48:06;101551.72;;;22.12
67599;BMP280;62026;39.230;9.122;2023-10-13T02:50:59;101557.09;;;22.07
67599;BMP280;62026;39.230;9.122;2023-10-13T02:53:31;101549.28;;;22.06
67599;BMP280;62026;39.230;9.122;2023-10-13T02:55:57;101549.56;;;22.09
67599;BMP280;62026;39.230;9.122;2023-10-13T02:58:31;101542.03;;;22.01
67599;BMP280;62026;39.230;9.122;2023-10-13T03:01:11;101550.63;;;21.98
67599;BMP280;62026;39.230;9.122;2023-10-13T03:03:49;101546.34;;;21.97
67599;BMP280;62026;39.230;9.122;2023-10-13T03:06:22;101553.31;;;21.93
67599;BMP280;62026;39.230;9.122;2023-10-13T03:08:51;101552.25;;;21.89
67599;BMP280;62026;39.230;9.122;2023-10-13T03:11:18;101547.41;;;21.81
67599;BMP280;62026;39.230;9.122;2023-10-13T03:13:49;101551.16;;;21.80
67599;BMP280;62026;39.230;9.122;2023-10-13T03:16:18;101551.16;;;21.80
67599;BMP280;62026;39.230;9.122;2023-10-13T03:18:48;101546.31;;;21.77
67599;BMP280;62026;39.230;9.122;2023-10-13T03:21:23;101556.00;;;21.73
67599;BMP280;62026;39.230;9.122;2023-10-13T03:24:00;101556.53;;;21.75
67599;BMP280;62026;39.230;9.122;2023-10-13T03:26:33;101552.47;;;21.67
67599;BMP280;62026;39.230;9.122;2023-10-13T03:29:04;101558.16;;;21.66
67599;BMP280;62026;39.230;9.122;2023-10-13T03:31:34;101556.53;;;21.65
67599;BMP280;62026;39.230;9.122;2023-10-13T03:34:06;101561.91;;;21.65
67599;BMP280;62026;39.230;9.122;2023-10-13T03:36:38;101562.94;;;21.63
67599;BMP280;62026;39.230;9.122;2023-10-13T03:39:22;101562.13;;;21.63
67599;BMP280;62026;39.230;9.122;2023-10-13T03:42:00;101558.66;;;21.57
67599;BMP280;62026;39.230;9.122;2023-10-13T03:44:26;101562.94;;;21.58
67599;BMP280;62026;39.230;9.122;2023-10-13T03:46:56;101557.03;;;21.56
67599;BMP280;62026;39.230;9.122;2023-10-13T03:49:22;101555.94;;;21.52
67599;BMP280;62026;39.230;9.122;2023-10-13T03:51:51;101562.38;;;21.51
67599;BMP280;62026;39.230;9.122;2023-10-13T03:54:20;101555.91;;;21.47
67599;BMP280;62026;39.230;9.122;2023-10-13T03:56:46;101557.31;;;21.50
67599;BMP280;62026;39.230;9.122;2023-10-13T03:59:17;101553.81;;;21.49
67599;BMP280;62026;39.230;9.122;2023-10-13T04:01:45;101553.75;;;21.39
67599;BMP280;62026;39.230;9.122;2023-10-13T04:04:18;101550.00;;;21.40
67599;BMP280;62026;39.230;9.122;2023-10-13T04:07:04;101556.72;;;21.43
67599;BMP280;62026;39.230;9.122;2023-10-13T04:09:35;101553.78;;;21.44
67599;BMP280;62026;39.230;9.122;2023-10-13T04:12:13;101551.34;;;21.43
67599;BMP280;62026;39.230;9.122;2023-10-13T04:15:06;101553.22;;;21.37
67599;BMP280;62026;39.230;9.122;2023-10-13T04:17:32;101555.91;;;21.42
67599;BMP280;62026;39.230;9.122;2023-10-13T04:20:07;101556.97;;;21.36
67599;BMP280;62026;39.230;9.122;2023-10-13T04:22:41;101555.63;;;21.39
67599;BMP280;62026;39.230;9.122;2023-10-13T04:25:27;101558.31;;;21.34
67599;BMP280;62026;39.230;9.122;2023-10-13T04:28:10;101545.69;;;21.29
67599;BMP280;62026;39.230;9.122;2023-10-13T04:30:52;101554.25;;;21.31
67599;BMP280;62026;39.230;9.122;2023-10-13T04:33:19;101553.72;;;21.29
67599;BMP280;62026;39.230;9.122;2023-10-13T04:36:10;101554.81;;;21.28
67599;BMP280;62026;39.230;9.122;2023-10-13T04:38:42;101554.75;;;21.23
67599;BMP280;62026;39.230;9.122;2023-10-13T04:41:33;101557.19;;;21.24
67599;BMP280;62026;39.230;9.122;2023-10-13T04:44:17;101554.75;;;21.23
67599;BMP280;62026;39.230;9.122;2023-10-13T04:46:58;101551.53;;;21.26
67599;BMP280;62026;39.230;9.122;2023-10-13T04:49:32;101550.47;;;21.22
67599;BMP280;62026;39.230;9.122;2023-10-13T04:52:16;101562.78;;;21.18
67599;BMP280;62026;39.230;9.122;2023-10-13T04:55:02;101556.38;;;21.24
67599;BMP280;62026;39.230;9.122;2023-10-13T04:57:58;101566.56;;;21.22
67599;BMP280;62026;39.230;9.122;2023-10-13T05:00:40;101562.31;;;21.21
67599;BMP280;62026;39.230;9.122;2023-10-13T05:03:22;101571.66;;;21.18
67599;BMP280;62026;39.230;9.122;2023-10-13T05:06:19;101568.75;;;21.20
67599;BMP280;62026;39.230;9.122;2023-10-13T05:09:03;101570.84;;;21.18
67599;BMP280;62026;39.230;9.122;2023-10-13T05:11:48;101573.53;;;21.18
67599;BMP280;62026;39.230;9.122;2023-10-13T05:14:32;101573.53;;;21.18
67599;BMP280;62026;39.230;9.122;2023-10-13T05:17:17;101563.81;;;21.07
67599;BMP280;62026;39.230;9.122;2023-10-13T05:20:02;101578.84;;;21.03
67599;BMP280;62026;39.230;9.122;2023-10-13T05:22:47;101567.38;;;21.12
67599;BMP280;62026;39.230;9.122;2023-10-13T05:25:35;101564.91;;;21.11
67599;BMP280;62026;39.230;9.122;2023-10-13T05:28:20;101573.53;;;21.13
67599;BMP280;62026;39.230;9.122;2023-10-13T05:31:04;101564.88;;;21.06
67599;BMP280;62026;39.230;9.122;2023-10-13T05:33:49;101571.94;;;21.12
67599;BMP280;62026;39.230;9.122;2023-10-13T05:36:34;101571.63;;;21.08
67599;BMP280;62026;39.230;9.122;2023-10-13T05:39:18;101571.13;;;21.11
67599;BMP280;62026;39.230;9.122;2023-10-13T05:42:03;101577.28;;;21.12
67599;BMP280;62026;39.230;9.122;2023-10-13T05:44:48;101569.25;;;21.17
67599;BMP280;62026;39.230;9.122;2023-10-13T05:47:33;101580.25;;;21.15
67599;BMP280;62026;39.230;9.122;2023-10-13T05:50:22;101575.72;;;21.21
67599;BMP280;62026;39.230;9.122;2023-10-13T05:52:49;101580.00;;;21.17
67599;BMP280;62026;39.230;9.122;2023-10-13T05:55:29;101582.69;;;21.22
67599;BMP280;62026;39.230;9.122;2023-10-13T05:58:14;101585.13;;;21.23
67599;BMP280;62026;39.230;9.122;2023-10-13T06:00:59;101592.16;;;21.40
67599;BMP280;62026;39.230;9.122;2023-10-13T06:03:44;101585.47;;;21.47
67599;BMP280;62026;39.230;9.122;2023-10-13T06:06:29;101601.13;;;21.60
67599;BMP280;62026;39.230;9.122;2023-10-13T06:09:13;101592.50;;;21.58
67599;BMP280;62026;39.230;9.122;2023-10-13T06:11:58;101600.88;;;21.67
67599;BMP280;62026;39.230;9.122;2023-10-13T06:14:46;101602.25;;;21.80
67599;BMP280;62026;39.230;9.122;2023-10-13T06:17:31;101611.16;;;21.95
67599;BMP280;62026;39.230;9.122;2023-10-13T06:20:16;101616.00;;;22.04
67599;BMP280;62026;39.230;9.122;2023-10-13T06:23:01;101617.06;;;22.18
67599;BMP280;62026;39.230;9.122;2023-10-13T06:25:53;101627.06;;;22.27
67599;BMP280;62026;39.230;9.122;2023-10-13T06:28:38;101633.50;;;22.36
67599;BMP280;62026;39.230;9.122;2023-10-13T06:31:09;101630.81;;;22.47
67599;BMP280;62026;39.230;9.122;2023-10-13T06:33:47;101645.34;;;22.66
67599;BMP280;62026;39.230;9.122;2023-10-13T06:36:14;101652.03;;;22.78
67599;BMP280;62026;39.230;9.122;2023-10-13T06:38:40;101658.47;;;22.98
67599;BMP280;62026;39.230;9.122;2023-10-13T06:41:08;101651.41;;;23.27
67599;BMP280;62026;39.230;9.122;2023-10-13T06:43:37;101648.41;;;23.34
67599;BMP280;62026;39.230;9.122;2023-10-13T06:46:12;101644.84;;;23.43
67599;BMP280;62026;39.230;9.122;2023-10-13T06:48:49;101646.66;;;23.58
67599;BMP280;62026;39.230;9.122;2023-10-13T06:51:19;101642.72;;;23.89
67599;BMP280;62026;39.230;9.122;2023-10-13T06:53:52;101656.38;;;24.03
67599;BMP280;62026;39.230;9.122;2023-10-13T06:56:23;101658.97;;;24.13
67599;BMP280;62026;39.230;9.122;2023-10-13T06:58:58;101667.81;;;24.24
67599;BMP280;62026;39.230;9.122;2023-10-13T07:01:30;101668.63;;;24.53
67599;BMP280;62026;39.230;9.122;2023-10-13T07:04:07;101665.69;;;24.79
67599;BMP280;62026;39.230;9.122;2023-10-13T07:06:40;101681.72;;;25.17
67599;BMP280;62026;39.230;9.122;2023-10-13T07:09:20;101673.28;;;25.24
67599;BMP280;62026;39.230;9.122;2023-10-13T07:12:06;101679.50;;;25.01
67599;BMP280;62026;39.230;9.122;2023-10-13T07:14:49;101689.78;;;24.99
67599;BMP280;62026;39.230;9.122;2023-10-13T07:17:19;101691.84;;;25.07
67599;BMP280;62026;39.230;9.122;2023-10-13T07:19:55;101682.81;;;24.93
67599;BMP280;62026;39.230;9.122;2023-10-13T07:22:41;101682.59;;;25.55
67599;BMP280;62026;39.230;9.122;2023-10-13T07:25:11;101688.44;;;26.00
67599;BMP280;62026;39.230;9.122;2023-10-13T07:27:49;101689.97;;;26.38
67599;BMP280;62026;39.230;9.122;2023-10-13T07:30:15;101700.09;;;26.47
67599;BMP280;62026;39.230;9.122;2023-10-13T07:32:46;101691.00;;;26.10
67599;BMP280;62026;39.230;9.122;2023-10-13T07:35:17;101701.06;;;26.37
67599;BMP280;62026;39.230;9.122;2023-10-13T07:37:48;101697.66;;;26.31
67599;BMP280;62026;39.230;9.122;2023-10-13T07:40:18;101705.34;;;25.92
67599;BMP280;62026;39.230;9.122;2023-10-13T07:42:50;101703.63;;;26.15
67599;BMP280;62026;39.230;9.122;2023-10-13T07:45:17;101706.78;;;26.81
67599;BMP280;62026;39.230;9.122;2023-10-13T07:47:54;101703.53;;;26.66
67599;BMP280;62026;39.230;9.122;2023-10-13T07:50:20;101713.28;;;26.80
67599;BMP280;62026;39.230;9.122;2023-10-13T07:52:53;101711.59;;;26.98
67599;BMP280;62026;39.230;9.122;2023-10-13T07:55:33;101704.94;;;27.32
67599;BMP280;62026;39.230;9.122;2023-10-13T07:58:00;101707.41;;;27.55
67599;BMP280;62026;39.230;9.122;2023-10-13T08:00:33;101719.22;;;27.73
67599;BMP280;62026;39.230;9.122;2023-10-13T08:03:04;101718.81;;;27.66
67599;BMP280;62026;39.230;9.122;2023-10-13T08:05:44;101721.28;;;27.90
67599;BMP280;62026;39.230;9.122;2023-10-13T08:08:33;101723.16;;;28.12
67599;BMP280;62026;39.230;9.122;2023-10-13T08:11:14;101728.09;;;28.32
67599;BMP280;62026;39.230;9.122;2023-10-13T08:13:50;101723.38;;;28.46
67599;BMP280;62026;39.230;9.122;2023-10-13T08:16:29;101726.56;;;28.48
67599;BMP280;62026;39.230;9.122;2023-10-13T08:19:15;101728.72;;;28.60
67599;BMP280;62026;39.230;9.122;2023-10-13T08:21:47;101727.63;;;28.69
67599;BMP280;62026;39.230;9.122;2023-10-13T08:24:20;101726.63;;;29.05
67599;BMP280;62026;39.230;9.122;2023-10-13T08:27:19;101727.88;;;28.99
67599;BMP280;62026;39.230;9.122;2023-10-13T08:30:02;101734.34;;;29.20
67599;BMP280;62026;39.230;9.122;2023-10-13T08:32:57;101727.16;;;29.15
67599;BMP280;62026;39.230;9.122;2023-10-13T08:35:25;101732.56;;;29.07
67599;BMP280;62026;39.230;9.122;2023-10-13T08:38:03;101726.66;;;29.13
67599;BMP280;62026;39.230;9.122;2023-10-13T08:40:59;101727.66;;;29.43
67599;BMP280;62026;39.230;9.122;2023-10-13T08:43:44;101727.34;;;29.27
67599;BMP280;62026;39.230;9.122;2023-10-13T08:46:13;101732.16;;;29.65
67599;BMP280;62026;39.230;9.122;2023-10-13T08:48:55;101735.97;;;29.47
67599;BMP280;62026;39.230;9.122;2023-10-13T08:51:34;101732.16;;;29.65
67599;BMP280;62026;39.230;9.122;2023-10-13T08:54:23;101746.06;;;29.46
67599;BMP280;62026;39.230;9.122;2023-10-13T08:57:05;101736.94;;;29.76
67599;BMP280;62026;39.230;9.122;2023-10-13T08:59:49;101743.50;;;29.41
67599;BMP280;62026;39.230;9.122;2023-10-13T09:02:22;101746.66;;;29.17
67599;BMP280;62026;39.230;9.122;2023-10-13T09:05:10;101747.16;;;29.28
67599;BMP280;62026;39.230;9.122;2023-10-13T09:07:54;101746.72;;;29.43
67599;BMP280;62026;39.230;9.122;2023-10-13T09:10:24;101747.31;;;30.09
67599;BMP280;62026;39.230;9.122;2023-10-13T09:12:59;101749.19;;;30.34
67599;BMP280;62026;39.230;9.122;2023-10-13T09:15:30;101743.19;;;30.49
67599;BMP280;62026;39.230;9.122;2023-10-13T09:18:27;101753.34;;;30.32
67599;BMP280;62026;39.230;9.122;2023-10-13T09:21:14;101750.06;;;29.57
67599;BMP280;62026;39.230;9.122;2023-10-13T09:24:12;101752.59;;;30.14
67599;BMP280;62026;39.230;9.122;2023-10-13T09:26:43;101758.88;;;30.06
67599;BMP280;62026;39.230;9.122;2023-10-13T09:29:20;101754.25;;;30.44
67599;BMP280;62026;39.230;9.122;2023-10-13T09:31:48;101752.50;;;30.78
67599;BMP280;62026;39.230;9.122;2023-10-13T09:34:25;101761.88;;;30.13
67599;BMP280;62026;39.230;9.122;2023-10-13T09:36:58;101756.34;;;30.39
67599;BMP280;62026;39.230;9.122;2023-10-13T09:39:26;101753.66;;;30.30
67599;BMP280;62026;39.230;9.122;2023-10-13T09:42:11;101754.03;;;30.20
67599;BMP280;62026;39.230;9.122;2023-10-13T09:44:38;101745.31;;;30.35
67599;BMP280;62026;39.230;9.122;2023-10-13T09:47:10;101752.75;;;29.23
67599;BMP280;62026;39.230;9.122;2023-10-13T09:49:52;101748.75;;;29.98
67599;BMP280;62026;39.230;9.122;2023-10-13T09:52:23;101760.63;;;29.33
67599;BMP280;62026;39.230;9.122;2023-10-13T09:57:56;101770.50;;;30.23
67599;BMP280;62026;39.230;9.122;2023-10-13T10:00:29;101762.44;;;30.44
67599;BMP280;62026;39.230;9.122;2023-10-13T10:03:09;101756.25;;;30.94
67599;BMP280;62026;39.230;9.122;2023-10-13T10:05:59;101756.66;;;30.84
67599;BMP280;62026;39.230;9.122;2023-10-13T10:08:51;101755.34;;;30.90
67599;BMP280;62026;39.230;9.122;2023-10-13T10:15:15;101757.31;;;30.81
67599;BMP280;62026;39.230;9.122;2023-10-13T10:17:54;101747.91;;;30.99
67599;BMP280;62026;39.230;9.122;2023-10-13T10:20:32;101744.03;;;31.00
67599;BMP280;62026;39.230;9.122;2023-10-13T10:23:21;101747.50;;;31.09
67599;BMP280;62026;39.230;9.122;2023-10-13T10:25:48;101742.44;;;30.99
67599;BMP280;62026;39.230;9.122;2023-10-13T10:28:17;101742.56;;;29.80
67599;BMP280;62026;39.230;9.122;2023-10-13T10:30:45;101748.59;;;30.20
67599;BMP280;62026;39.230;9.122;2023-10-13T10:33:12;101742.69;;;29.32
67599;BMP280;62026;39.230;9.122;2023-10-13T10:35:44;101736.16;;;29.50
67599;BMP280;62026;39.230;9.122;2023-10-13T10:38:19;101731.00;;;29.74
67599;BMP280;62026;39.230;9.122;2023-10-13T10:41:05;101728.88;;;30.52
67599;BMP280;62026;39.230;9.122;2023-10-13T10:46:18;101719.81;;;29.67
67599;BMP280;62026;39.230;9.122;2023-10-13T10:48:47;101719.63;;;28.64
67599;BMP280;62026;39.230;9.122;2023-10-13T10:51:15;101719.44;;;28.61
67599;BMP280;62026;39.230;9.122;2023-10-13T10:53:42;101722.44;;;28.50
67599;BMP280;62026;39.230;9.122;2023-10-13T10:56:12;101704.59;;;28.67
67599;BMP280;62026;39.230;9.122;2023-10-13T10:58:59;101714.91;;;28.17
67599;BMP280;62026;39.230;9.122;2023-10-13T11:01:31;101717.72;;;28.12
67599;BMP280;62026;39.230;9.122;2023-10-13T11:04:06;101711.41;;;28.47
67599;BMP280;62026;39.230;9.122;2023-10-13T11:06:55;101703.16;;;28.30
67599;BMP280;62026;39.230;9.122;2023-10-13T11:09:31;101702.72;;;28.36
67599;BMP280;62026;39.230;9.122;2023-10-13T11:12:10;101701.69;;;27.79
67599;BMP280;62026;39.230;9.122;2023-10-13T11:15:02;101697.97;;;27.53
67599;BMP280;62026;39.230;9.122;2023-10-13T11:17:31;101686.00;;;28.21
67599;BMP280;62026;39.230;9.122;2023-10-13T11:20:18;101686.69;;;27.82
67599;BMP280;62026;39.230;9.122;2023-10-13T11:22:52;101679.53;;;28.08
67599;BMP280;62026;39.230;9.122;2023-10-13T11:25:30;101679.13;;;27.70
67599;BMP280;62026;39.230;9.122;2023-10-13T11:28:14;101686.28;;;28.11
67599;BMP280;62026;39.230;9.122;2023-10-13T11:30:45;101685.50;;;28.19
67599;BMP280;62026;39.230;9.122;2023-10-13T11:33:19;101679.69;;;28.12
67599;BMP280;62026;39.230;9.122;2023-10-13T11:35:53;101673.06;;;27.73
67599;BMP280;62026;39.230;9.122;2023-10-13T11:38:27;101666.50;;;27.96
67599;BMP280;62026;39.230;9.122;2023-10-13T11:41:00;101670.16;;;28.14
67599;BMP280;62026;39.230;9.122;2023-10-13T11:43:36;101666.03;;;27.72
67599;BMP280;62026;39.230;9.122;2023-10-13T11:46:12;101668.53;;;27.82
67599;BMP280;62026;39.230;9.122;2023-10-13T11:48:41;101660.69;;;27.89
67599;BMP280;62026;39.230;9.122;2023-10-13T11:51:13;101657.75;;;27.77
67599;BMP280;62026;39.230;9.122;2023-10-13T11:53:50;101653.94;;;27.78
67599;BMP280;62026;39.230;9.122;2023-10-13T11:56:20;101650.22;;;27.96
67599;BMP280;62026;39.230;9.122;2023-10-13T11:58:47;101655.56;;;27.79
67599;BMP280;62026;39.230;9.122;2023-10-13T12:01:15;101647.50;;;27.74
67599;BMP280;62026;39.230;9.122;2023-10-13T12:03:47;101651.38;;;27.37
67599;BMP280;62026;39.230;9.122;2023-10-13T12:06:33;101651.56;;;27.41
67599;BMP280;62026;39.230;9.122;2023-10-13T12:09:07;101643.41;;;27.54
67599;BMP280;62026;39.230;9.122;2023-10-13T12:11:47;101645.97;;;27.23
67599;BMP280;62026;39.230;9.122;2023-10-13T12:14:16;101644.81;;;27.16
67599;BMP280;62026;39.230;9.122;2023-10-13T12:16:49;101635.00;;;27.06
67599;BMP280;62026;39.230;9.122;2023-10-13T12:19:20;101631.06;;;26.99
67599;BMP280;62026;39.230;9.122;2023-10-13T12:21:57;101627.66;;;26.93
67599;BMP280;62026;39.230;9.122;2023-10-13T12:24:26;101618.25;;;26.63
67599;BMP280;62026;39.230;9.122;2023-10-13T12:27:06;101628.00;;;26.78
67599;BMP280;62026;39.230;9.122;2023-10-13T12:30:00;101624.06;;;26.84
67599;BMP280;62026;39.230;9.122;2023-10-13T12:32:33;101623.78;;;26.72
67599;BMP280;62026;39.230;9.122;2023-10-13T12:35:00;101618.44;;;26.67
67599;BMP280;62026;39.230;9.122;2023-10-13T12:37:31;101608.53;;;26.62
67599;BMP280;62026;39.230;9.122;2023-10-13T12:40:18;101608.63;;;26.71
67599;BMP280;62026;39.230;9.122;2023-10-13T12:43:05;101601.09;;;26.68
67599;BMP280;62026;39.230;9.122;2023-10-13T12:45:51;101603.09;;;26.49
67599;BMP280;62026;39.230;9.122;2023-10-13T12:48:38;101609.22;;;26.54
67599;BMP280;62026;39.230;9.122;2023-10-13T12:51:30;101606.22;;;26.56
67599;BMP280;62026;39.230;9.122;2023-10-13T12:54:01;101590.34;;;26.35
67599;BMP280;62026;39.230;9.122;2023-10-13T12:56:40;101593.34;;;26.48
67599;BMP280;62026;39.230;9.122;2023-10-13T12:59:12;101595.59;;;26.46
67599;BMP280;62026;39.230;9.122;2023-10-13T13:01:44;101599.56;;;26.34
67599;BMP280;62026;39.230;9.122;2023-10-13T13:04:10;101582.72;;;26.37
67599;BMP280;62026;39.230;9.122;2023-10-13T13:06:44;101584.13;;;26.49
67599;BMP280;62026;39.230;9.122;2023-10-13T13:09:10;101587.31;;;26.51
67599;BMP280;62026;39.230;9.122;2023-10-13T13:11:36;101592.13;;;26.40
67599;BMP280;62026;39.230;9.122;2023-10-13T13:14:09;101582.31;;;26.44
67599;BMP280;62026;39.230;9.122;2023-10-13T13:16:36;101579.09;;;26.28
67599;BMP280;62026;39.230;9.122;2023-10-13T13:19:05;101585.13;;;26.25
67599;BMP280;62026;39.230;9.122;2023-10-13T13:21:39;101580.31;;;26.22
67599;BMP280;62026;39.230;9.122;2023-10-13T13:24:06;101577.59;;;26.36
67599;BMP280;62026;39.230;9.122;2023-10-13T13:26:39;101585.13;;;26.25
67599;BMP280;62026;39.230;9.122;2023-10-13T13:29:06;101579.22;;;26.23
67599;BMP280;62026;39.230;9.122;2023-10-13T13:31:35;101577.28;;;26.24
67599;BMP280;62026;39.230;9.122;2023-10-13T13:34:10;101576.66;;;26.27
67599;BMP280;62026;39.230;9.122;2023-10-13T13:36:39;101582.09;;;26.13
67599;BMP280;62026;39.230;9.122;2023-10-13T13:39:13;101579.09;;;26.28
67599;BMP280;62026;39.230;9.122;2023-10-13T13:41:43;101579.91;;;26.15
67599;BMP280;62026;39.230;9.122;2023-10-13T13:44:09;101580.91;;;26.19
67599;BMP280;62026;39.230;9.122;2023-10-13T13:46:39;101576.28;;;26.20
67599;BMP280;62026;39.230;9.122;2023-10-13T13:49:09;101575.00;;;26.31
67599;BMP280;62026;39.230;9.122;2023-10-13T13:51:46;101578.91;;;26.25
67599;BMP280;62026;39.230;9.122;2023-10-13T13:54:20;101582.63;;;26.43
67599;BMP280;62026;39.230;9.122;2023-10-13T13:56:47;101575.13;;;26.39
67599;BMP280;62026;39.230;9.122;2023-10-13T13:59:13;101574.31;;;26.39
67599;BMP280;62026;39.230;9.122;2023-10-13T14:01:45;101581.50;;;26.44
67599;BMP280;62026;39.230;9.122;2023-10-13T14:04:11;101568.09;;;26.38
67599;BMP280;62026;39.230;9.122;2023-10-13T14:06:39;101574.09;;;26.35
67599;BMP280;62026;39.230;9.122;2023-10-13T14:09:05;101567.66;;;26.31
67599;BMP280;62026;39.230;9.122;2023-10-13T14:11:41;101565.34;;;26.25
67599;BMP280;62026;39.230;9.122;2023-10-13T14:14:36;101560.34;;;26.18
67599;BMP280;62026;39.230;9.122;2023-10-13T14:17:03;101570.06;;;26.19
67599;BMP280;62026;39.230;9.122;2023-10-13T14:19:33;101564.59;;;25.92
67599;BMP280;62026;39.230;9.122;2023-10-13T14:22:01;101569.44;;;26.09
67599;BMP280;62026;39.230;9.122;2023-10-13T14:24:34;101567.03;;;26.07
67599;BMP280;62026;39.230;9.122;2023-10-13T14:27:03;101568.81;;;25.98
67599;BMP280;62026;39.230;9.122;2023-10-13T14:29:40;101556.19;;;25.93
67599;BMP280;62026;39.230;9.122;2023-10-13T14:32:09;101558.59;;;25.95
67599;BMP280;62026;39.230;9.122;2023-10-13T14:34:43;101557.50;;;25.96
67599;BMP280;62026;39.230;9.122;2023-10-13T14:37:10;101560.59;;;25.89
67599;BMP280;62026;39.230;9.122;2023-10-13T14:39:40;101557.72;;;25.81
67599;BMP280;62026;39.230;9.122;2023-10-13T14:42:07;101546.34;;;25.84
67599;BMP280;62026;39.230;9.122;2023-10-13T14:44:34;101550.13;;;25.69
67599;BMP280;62026;39.230;9.122;2023-10-13T14:47:03;101552.75;;;25.88
67599;BMP280;62026;39.230;9.122;2023-10-13T14:49:34;101560.97;;;25.83
67599;BMP280;62026;39.230;9.122;2023-10-13T14:52:01;101546.34;;;25.84
67599;BMP280;62026;39.230;9.122;2023-10-13T14:54:27;101548.09;;;25.75